Livermore, California
Current Conditions -  °F | °C
As of 7:53 PM on Monday 22 Dec 2014 (Local Time) from KLVK Reporting Station
Clear Clear  
Wind Chill: 57°   Ceiling: Unl
Heat Index: 57°   Visibility: 10mi
Dew Point: 52°   Wind: 0mph
Humidity: 83%   Direction: NA
Pressure: 30.2"   Gusts: NA
Location:  37.68°N, 121.75°W
Report Text: KLVK 230353Z 00000KT 10SM CLR 14/11 A3020 RMK AO2 SLP224 T01390111
Loading
Personal Weather Stations






























Interactive Weather Map New forecast layout! Learn more

10-Day Weather Forecast

Advertisements
Track Severe Weather on mobile